createdAt,value
2017-08-31T00:00:37.820Z,0
2017-08-31T00:01:39.209Z,0
2017-08-31T00:02:40.588Z,0
2017-08-31T00:03:42.005Z,0
2017-08-31T00:04:43.419Z,0
2017-08-31T00:05:44.854Z,0
2017-08-31T00:06:46.233Z,0
2017-08-31T00:07:47.607Z,0
2017-08-31T00:08:48.984Z,0
2017-08-31T00:09:50.358Z,0
2017-08-31T00:10:51.739Z,0
2017-08-31T00:11:53.120Z,0
2017-08-31T00:12:54.484Z,0
2017-08-31T00:13:55.863Z,0
2017-08-31T00:14:57.242Z,0
2017-08-31T00:15:58.665Z,0
2017-08-31T00:17:00.062Z,0
2017-08-31T00:18:01.476Z,0
2017-08-31T00:19:02.914Z,0
2017-08-31T00:20:04.309Z,0
2017-08-31T00:21:05.681Z,0
2017-08-31T00:22:48.048Z,0
2017-08-31T00:23:49.415Z,0
2017-08-31T00:24:50.795Z,0
2017-08-31T00:25:52.175Z,0
2017-08-31T00:26:53.553Z,0
2017-08-31T00:27:54.925Z,0
2017-08-31T00:28:56.299Z,0
2017-08-31T00:29:57.695Z,0
2017-08-31T00:30:59.058Z,0
2017-08-31T00:32:00.428Z,0
2017-08-31T00:33:01.800Z,0
2017-08-31T00:34:03.173Z,0
2017-08-31T00:35:04.556Z,0
2017-08-31T00:36:05.935Z,0
2017-08-31T00:37:07.321Z,0
2017-08-31T00:38:08.698Z,0
2017-08-31T00:39:10.065Z,0
2017-08-31T00:40:11.485Z,0
2017-08-31T00:41:12.899Z,0
2017-08-31T00:42:14.288Z,0
2017-08-31T00:43:15.684Z,0
2017-08-31T00:44:17.063Z,0
2017-08-31T00:45:18.446Z,0
2017-08-31T00:46:19.862Z,0
2017-08-31T00:47:21.235Z,0
2017-08-31T00:48:22.611Z,0
2017-08-31T00:49:24.295Z,0
2017-08-31T00:50:25.984Z,0
2017-08-31T00:51:28.130Z,0
2017-08-31T00:52:29.754Z,0
2017-08-31T00:53:31.477Z,0
2017-08-31T00:55:13.853Z,0
2017-08-31T00:56:15.223Z,0
2017-08-31T00:57:16.606Z,0
2017-08-31T00:58:17.979Z,0
2017-08-31T00:59:19.354Z,0
2017-08-31T01:00:20.730Z,0
2017-08-31T01:01:22.118Z,0
2017-08-31T01:02:23.511Z,0
2017-08-31T01:03:24.894Z,0
2017-08-31T01:04:26.272Z,0
2017-08-31T01:05:27.651Z,0
2017-08-31T01:06:29.048Z,0
2017-08-31T01:07:30.438Z,0
2017-08-31T01:08:31.813Z,0
2017-08-31T01:09:33.188Z,0
2017-08-31T01:11:15.574Z,0
2017-08-31T01:12:16.941Z,0
2017-08-31T01:13:18.334Z,0
2017-08-31T01:14:19.713Z,0
2017-08-31T01:15:21.087Z,0
2017-08-31T01:16:22.468Z,0
2017-08-31T01:17:23.842Z,0
2017-08-31T01:18:25.214Z,0
2017-08-31T01:19:26.604Z,0
2017-08-31T01:20:28.167Z,0
2017-08-31T01:21:29.877Z,0
2017-08-31T01:22:31.278Z,0
2017-08-31T01:23:32.903Z,0
2017-08-31T01:24:34.277Z,0
2017-08-31T01:25:35.649Z,0
2017-08-31T01:26:37.022Z,0
2017-08-31T01:27:38.441Z,0
2017-08-31T01:28:39.778Z,0
2017-08-31T01:29:41.174Z,0
2017-08-31T01:30:42.624Z,0
2017-08-31T01:31:44.365Z,0
2017-08-31T01:32:45.743Z,0
2017-08-31T01:33:47.192Z,0
2017-08-31T01:34:48.625Z,0
2017-08-31T01:35:50.093Z,0
2017-08-31T01:36:51.570Z,0
2017-08-31T01:37:52.981Z,0
2017-08-31T01:38:54.404Z,0
2017-08-31T01:39:55.866Z,0
2017-08-31T01:40:57.266Z,0
2017-08-31T01:41:58.741Z,0
2017-08-31T01:43:41.104Z,0
2017-08-31T01:44:42.486Z,0
2017-08-31T01:45:43.858Z,0
2017-08-31T01:46:45.434Z,0
2017-08-31T01:47:46.834Z,0
2017-08-31T01:48:48.206Z,0
2017-08-31T01:49:49.592Z,0
2017-08-31T01:50:50.971Z,0
2017-08-31T01:51:52.476Z,0
2017-08-31T01:52:53.945Z,0
2017-08-31T01:53:55.338Z,0
2017-08-31T01:54:57.045Z,0
2017-08-31T01:55:58.503Z,0
2017-08-31T01:56:59.929Z,0
2017-08-31T01:58:01.380Z,0
2017-08-31T01:59:43.764Z,0
2017-08-31T02:00:45.147Z,0
2017-08-31T02:01:46.812Z,0
2017-08-31T02:02:48.272Z,0
2017-08-31T02:03:49.651Z,0
2017-08-31T02:05:30.548Z,0
2017-08-31T02:06:32.034Z,0
2017-08-31T02:07:55.911Z,0
2017-08-31T02:08:57.267Z,0
2017-08-31T02:09:58.828Z,0
2017-08-31T02:11:00.217Z,0
2017-08-31T02:12:01.592Z,0
2017-08-31T02:13:03.054Z,0
2017-08-31T02:14:04.475Z,0
2017-08-31T02:15:05.858Z,0
2017-08-31T02:16:07.274Z,0
2017-08-31T02:17:08.715Z,0
2017-08-31T02:18:10.106Z,0
2017-08-31T02:19:12.014Z,0
2017-08-31T02:20:13.999Z,0
2017-08-31T02:21:15.699Z,0
2017-08-31T02:22:17.113Z,0
2017-08-31T02:23:18.503Z,0
2017-08-31T02:24:19.875Z,0
2017-08-31T02:25:21.311Z,0
2017-08-31T02:26:22.714Z,0
2017-08-31T02:27:24.163Z,0
2017-08-31T02:28:25.553Z,0
2017-08-31T02:29:27.001Z,0
2017-08-31T02:30:28.493Z,0
2017-08-31T02:31:29.864Z,0
2017-08-31T02:32:31.256Z,0
2017-08-31T02:33:32.643Z,0
2017-08-31T02:34:34.057Z,0
2017-08-31T02:35:35.486Z,0
2017-08-31T02:36:36.934Z,0
2017-08-31T02:37:38.297Z,0
2017-08-31T02:38:39.695Z,0
2017-08-31T02:39:41.140Z,0
2017-08-31T02:40:42.540Z,0
2017-08-31T02:41:44.012Z,0
2017-08-31T02:42:45.411Z,0
2017-08-31T02:43:46.820Z,0
2017-08-31T02:44:48.216Z,0
2017-08-31T02:45:49.600Z,0
2017-08-31T02:46:50.998Z,0
2017-08-31T02:47:52.376Z,0
2017-08-31T02:48:53.803Z,0
2017-08-31T02:49:55.199Z,0
2017-08-31T02:50:56.574Z,0
2017-08-31T02:51:57.953Z,0
2017-08-31T02:52:59.351Z,0
2017-08-31T02:54:40.719Z,0
2017-08-31T02:55:42.093Z,0
2017-08-31T02:57:05.085Z,0
2017-08-31T02:58:06.457Z,0
2017-08-31T02:59:07.826Z,0
2017-08-31T03:00:09.206Z,0
2017-08-31T03:01:10.578Z,0
2017-08-31T03:02:11.950Z,0
2017-08-31T03:03:13.327Z,0
2017-08-31T03:04:14.701Z,0
2017-08-31T03:05:16.075Z,0
2017-08-31T03:06:17.450Z,0
2017-08-31T03:07:18.840Z,0
2017-08-31T03:08:20.214Z,0
2017-08-31T03:09:21.588Z,0
2017-08-31T03:10:22.966Z,0
2017-08-31T03:11:24.339Z,0
2017-08-31T03:12:25.825Z,0
2017-08-31T03:13:27.271Z,0
2017-08-31T03:14:28.790Z,0
2017-08-31T03:15:30.167Z,0
2017-08-31T03:16:31.596Z,0
2017-08-31T03:17:32.974Z,0
2017-08-31T03:18:34.408Z,0
2017-08-31T03:19:35.930Z,0
2017-08-31T03:20:37.339Z,0
2017-08-31T03:21:38.839Z,0
2017-08-31T03:22:40.228Z,0
2017-08-31T03:23:41.604Z,0
2017-08-31T03:24:43.023Z,0
2017-08-31T03:26:25.460Z,0
2017-08-31T03:27:26.824Z,0
2017-08-31T03:28:28.265Z,0
2017-08-31T03:29:29.668Z,0
2017-08-31T03:30:31.089Z,0
2017-08-31T03:31:32.503Z,0
2017-08-31T03:32:33.996Z,0
2017-08-31T03:33:35.605Z,0
2017-08-31T03:34:37.053Z,0
2017-08-31T03:35:38.501Z,0
2017-08-31T03:36:40.029Z,0
2017-08-31T03:37:41.638Z,0
2017-08-31T03:38:43.564Z,0
2017-08-31T03:39:45.239Z,0
2017-08-31T03:40:46.768Z,0
2017-08-31T03:41:48.227Z,0
2017-08-31T03:43:30.716Z,0
2017-08-31T03:44:32.094Z,0
2017-08-31T03:45:33.471Z,0
2017-08-31T03:46:34.972Z,0
2017-08-31T03:47:36.334Z,0
2017-08-31T03:48:37.706Z,0
2017-08-31T03:49:39.094Z,0
2017-08-31T03:50:40.613Z,0
2017-08-31T03:51:42.287Z,0
2017-08-31T03:52:44.051Z,0
2017-08-31T03:53:45.681Z,0
2017-08-31T03:54:47.097Z,0
2017-08-31T03:55:48.581Z,0
2017-08-31T03:56:50.018Z,0
2017-08-31T03:57:51.421Z,0
2017-08-31T03:58:52.827Z,0
2017-08-31T03:59:54.547Z,0
2017-08-31T04:00:56.006Z,0
2017-08-31T04:01:57.527Z,0
2017-08-31T04:02:58.991Z,0
2017-08-31T04:04:00.393Z,0
2017-08-31T04:05:01.807Z,0
2017-08-31T04:06:03.424Z,0
2017-08-31T04:07:05.007Z,0
2017-08-31T04:08:06.429Z,0
2017-08-31T04:09:48.815Z,0
2017-08-31T04:10:50.189Z,0
2017-08-31T04:11:51.559Z,0
2017-08-31T04:12:52.927Z,0
2017-08-31T04:13:54.313Z,0
2017-08-31T04:14:55.679Z,0
2017-08-31T04:15:57.091Z,0
2017-08-31T04:16:58.479Z,0
2017-08-31T04:17:59.901Z,0
2017-08-31T04:19:01.284Z,0
2017-08-31T04:20:02.656Z,0
2017-08-31T04:21:04.120Z,0
2017-08-31T04:22:05.665Z,0
2017-08-31T04:23:07.284Z,0
2017-08-31T04:24:08.811Z,0
2017-08-31T04:25:10.247Z,4
2017-08-31T04:26:11.709Z,4
2017-08-31T04:27:13.112Z,0
2017-08-31T04:28:14.496Z,0
2017-08-31T04:29:15.965Z,0
2017-08-31T04:30:17.353Z,0
2017-08-31T04:31:19.180Z,4
2017-08-31T04:32:20.903Z,4
2017-08-31T04:33:22.276Z,4
2017-08-31T04:34:23.647Z,4
2017-08-31T04:35:25.040Z,8
2017-08-31T04:36:26.528Z,8
2017-08-31T04:37:27.894Z,8
2017-08-31T04:38:29.292Z,16
2017-08-31T04:39:30.761Z,12
2017-08-31T04:40:32.216Z,16
2017-08-31T04:42:14.630Z,20
2017-08-31T04:43:16.265Z,20
2017-08-31T04:44:17.888Z,24
2017-08-31T04:45:19.799Z,32
2017-08-31T04:46:21.575Z,40
2017-08-31T04:47:22.999Z,48
2017-08-31T04:48:24.684Z,56
2017-08-31T04:49:26.298Z,60
2017-08-31T04:50:27.851Z,68
2017-08-31T04:51:29.434Z,80
2017-08-31T04:52:30.929Z,84
2017-08-31T04:53:32.538Z,72
2017-08-31T04:54:34.005Z,64
2017-08-31T04:55:35.475Z,72
2017-08-31T04:56:36.856Z,80
2017-08-31T04:58:19.250Z,80
2017-08-31T04:59:20.623Z,68
2017-08-31T05:00:21.995Z,80
2017-08-31T05:01:23.525Z,92
2017-08-31T05:02:24.907Z,108
2017-08-31T05:03:26.390Z,120
2017-08-31T05:04:27.900Z,120
2017-08-31T05:05:29.358Z,136
2017-08-31T05:06:30.749Z,144
2017-08-31T05:07:32.155Z,156
2017-08-31T05:08:33.804Z,180
2017-08-31T05:09:35.199Z,196
2017-08-31T05:10:36.586Z,192
2017-08-31T05:11:38.071Z,204
2017-08-31T05:12:39.851Z,220
2017-08-31T05:13:41.486Z,268
2017-08-31T05:14:42.857Z,340
2017-08-31T05:15:44.296Z,344
2017-08-31T05:16:45.712Z,396
2017-08-31T05:17:47.236Z,404
2017-08-31T05:18:48.749Z,372
2017-08-31T05:19:50.173Z,276
2017-08-31T05:20:51.626Z,272
2017-08-31T05:21:53.192Z,376
2017-08-31T05:22:54.642Z,384
2017-08-31T05:23:56.080Z,448
2017-08-31T05:24:57.781Z,520
2017-08-31T05:25:59.270Z,672
2017-08-31T05:27:00.850Z,672
2017-08-31T05:28:02.258Z,640
2017-08-31T05:29:03.761Z,692
2017-08-31T05:30:05.158Z,740
2017-08-31T05:31:06.571Z,752
2017-08-31T05:32:07.971Z,752
2017-08-31T05:33:09.528Z,756
2017-08-31T05:34:10.955Z,768
2017-08-31T05:35:12.350Z,828
2017-08-31T05:36:13.758Z,880
2017-08-31T05:37:15.142Z,912
2017-08-31T05:38:16.652Z,912
2017-08-31T05:39:18.160Z,924
2017-08-31T05:40:19.625Z,856
2017-08-31T05:41:21.194Z,900
2017-08-31T05:42:22.597Z,832
2017-08-31T05:43:24.100Z,964
2017-08-31T05:44:25.551Z,1044
2017-08-31T05:45:27.078Z,1088
2017-08-31T05:47:09.450Z,1044
2017-08-31T05:48:10.825Z,1076
2017-08-31T05:49:12.197Z,1064
2017-08-31T05:50:13.569Z,1152
2017-08-31T05:51:14.961Z,1108
2017-08-31T05:52:16.334Z,1028
2017-08-31T05:53:17.709Z,1004
2017-08-31T05:54:19.095Z,1012
2017-08-31T05:55:20.468Z,1028
2017-08-31T05:56:21.841Z,1008
2017-08-31T05:57:23.213Z,920
2017-08-31T05:58:24.598Z,868
2017-08-31T05:59:25.989Z,872
2017-08-31T06:00:27.359Z,792
2017-08-31T06:01:28.771Z,720
2017-08-31T06:03:11.157Z,692
2017-08-31T06:04:12.528Z,780
2017-08-31T06:05:13.916Z,1000
2017-08-31T06:06:15.293Z,1088
2017-08-31T06:07:16.669Z,1024
2017-08-31T06:08:18.045Z,1064
2017-08-31T06:09:19.431Z,1240
2017-08-31T06:10:20.808Z,1332
2017-08-31T06:11:22.187Z,1456
2017-08-31T06:12:23.601Z,1464
2017-08-31T06:13:24.972Z,1268
2017-08-31T06:14:26.351Z,1244
2017-08-31T06:15:27.727Z,1228
2017-08-31T06:16:29.105Z,1192
2017-08-31T06:17:30.505Z,1388
2017-08-31T06:18:31.868Z,1772
2017-08-31T06:19:33.260Z,1792
2017-08-31T06:20:34.635Z,1364
2017-08-31T06:21:36.024Z,1440
2017-08-31T06:22:37.395Z,1680
2017-08-31T06:23:38.775Z,1364
2017-08-31T06:24:40.150Z,1148
2017-08-31T06:25:41.524Z,912
2017-08-31T06:26:42.900Z,760
2017-08-31T06:27:44.276Z,804
2017-08-31T06:28:45.657Z,900
2017-08-31T06:29:47.034Z,1004
2017-08-31T06:30:48.435Z,1020
2017-08-31T06:31:49.814Z,1092
2017-08-31T06:32:51.186Z,924
2017-08-31T06:34:33.576Z,968
2017-08-31T06:35:34.931Z,968
2017-08-31T06:36:36.314Z,944
2017-08-31T06:37:37.698Z,1012
2017-08-31T06:38:39.109Z,964
2017-08-31T06:39:40.482Z,876
2017-08-31T06:40:41.862Z,796
2017-08-31T06:41:43.233Z,928
2017-08-31T06:42:44.700Z,1384
2017-08-31T06:43:46.086Z,1836
2017-08-31T06:44:47.463Z,2000
2017-08-31T06:45:49.226Z,2044
2017-08-31T06:46:50.907Z,2344
2017-08-31T06:47:52.359Z,2292
2017-08-31T06:48:53.817Z,1536
2017-08-31T06:49:55.438Z,960
2017-08-31T06:51:37.808Z,1836
2017-08-31T06:52:39.176Z,1676
2017-08-31T06:53:40.554Z,1836
2017-08-31T06:54:41.929Z,1964
2017-08-31T06:55:43.304Z,1372
2017-08-31T06:56:44.681Z,1428
2017-08-31T06:57:46.059Z,2216
2017-08-31T06:58:47.436Z,1904
2017-08-31T06:59:48.832Z,1792
2017-08-31T07:00:50.206Z,2788
2017-08-31T07:01:51.588Z,2776
2017-08-31T07:02:52.960Z,2800
2017-08-31T07:03:54.336Z,2352
2017-08-31T07:04:55.717Z,1680
2017-08-31T07:05:57.097Z,1592
2017-08-31T07:07:39.486Z,1644
2017-08-31T07:08:40.861Z,1864
2017-08-31T07:09:42.232Z,1728
2017-08-31T07:10:43.623Z,1636
2017-08-31T07:11:44.998Z,1628
2017-08-31T07:12:46.373Z,1644
2017-08-31T07:13:47.753Z,1904
2017-08-31T07:14:49.128Z,2200
2017-08-31T07:15:50.504Z,2280
2017-08-31T07:16:51.884Z,3188
2017-08-31T07:17:53.260Z,2788
2017-08-31T07:18:54.636Z,2692
2017-08-31T07:19:56.012Z,2176
2017-08-31T07:20:57.388Z,2536
2017-08-31T07:21:58.770Z,4004
2017-08-31T07:23:00.147Z,3916
2017-08-31T07:24:01.521Z,4548
2017-08-31T07:25:02.901Z,5912
2017-08-31T07:26:04.288Z,4768
2017-08-31T07:27:05.666Z,5680
2017-08-31T07:28:07.043Z,4100
2017-08-31T07:29:08.453Z,4424
2017-08-31T07:30:09.804Z,4948
2017-08-31T07:31:11.180Z,3596
2017-08-31T07:32:12.556Z,3076
2017-08-31T07:33:13.934Z,2840
2017-08-31T07:34:15.314Z,3156
2017-08-31T07:35:16.698Z,3148
2017-08-31T07:36:18.076Z,3420
2017-08-31T07:37:19.450Z,3960
2017-08-31T07:38:20.822Z,4224
2017-08-31T07:39:22.203Z,4088
2017-08-31T07:40:23.610Z,4156
2017-08-31T07:41:24.963Z,3456
2017-08-31T07:43:07.328Z,4004
2017-08-31T07:44:08.712Z,3456
2017-08-31T07:45:51.065Z,4656
2017-08-31T07:46:52.445Z,5108
2017-08-31T07:47:53.825Z,7132
2017-08-31T07:48:55.211Z,8564
2017-08-31T07:49:56.583Z,8312
2017-08-31T07:50:57.966Z,8888
2017-08-31T07:51:59.343Z,9956
2017-08-31T07:53:00.734Z,10164
2017-08-31T07:54:02.111Z,12348
2017-08-31T07:55:03.485Z,10828
2017-08-31T07:56:04.864Z,8676
2017-08-31T07:57:06.242Z,6972
2017-08-31T07:58:07.620Z,6256
2017-08-31T07:59:09.011Z,4916
2017-08-31T08:00:10.388Z,4180
2017-08-31T08:01:52.757Z,5936
2017-08-31T08:02:54.133Z,5944
2017-08-31T08:03:55.515Z,4372
2017-08-31T08:04:56.893Z,5752
2017-08-31T08:05:58.275Z,5848
2017-08-31T08:06:59.673Z,4320
2017-08-31T08:08:01.061Z,3644
2017-08-31T08:09:02.443Z,4020
2017-08-31T08:10:03.816Z,3748
2017-08-31T08:11:05.196Z,2836
2017-08-31T08:12:06.607Z,3016
2017-08-31T08:13:08.018Z,2992
2017-08-31T08:14:09.471Z,2796
2017-08-31T08:15:10.916Z,3508
2017-08-31T08:16:12.289Z,5152
2017-08-31T08:17:13.752Z,5240
2017-08-31T08:18:15.144Z,5564
2017-08-31T08:19:16.604Z,4732
2017-08-31T08:20:18.026Z,4104
2017-08-31T08:21:19.497Z,4580
2017-08-31T08:22:20.954Z,4872
2017-08-31T08:23:22.398Z,5360
2017-08-31T08:24:23.825Z,5188
2017-08-31T08:25:25.201Z,6984
2017-08-31T08:26:26.622Z,7884
2017-08-31T08:27:28.083Z,8412
2017-08-31T08:28:29.556Z,9468
2017-08-31T08:29:31.006Z,9260
2017-08-31T08:30:32.426Z,8316
2017-08-31T08:31:33.888Z,6680
2017-08-31T08:32:35.329Z,6992
2017-08-31T08:33:36.780Z,7148
2017-08-31T08:34:38.222Z,8040
2017-08-31T08:35:39.703Z,8084
2017-08-31T08:36:41.200Z,7408
2017-08-31T08:37:42.606Z,8924
2017-08-31T08:38:44.092Z,8420
2017-08-31T08:39:45.608Z,6520
2017-08-31T08:40:47.075Z,6968
2017-08-31T08:41:48.612Z,7500
2017-08-31T08:42:50.080Z,7204
2017-08-31T08:43:51.613Z,7388
2017-08-31T08:44:53.244Z,8492
2017-08-31T08:45:54.680Z,9096
2017-08-31T08:46:56.150Z,8364
2017-08-31T08:47:57.556Z,8412
2017-08-31T08:48:59.275Z,7464
2017-08-31T08:50:01.397Z,6136
2017-08-31T08:51:03.029Z,5096
2017-08-31T08:52:04.605Z,4436
2017-08-31T08:53:06.059Z,4024
2017-08-31T08:54:07.488Z,4288
2017-08-31T08:55:09.059Z,5436
2017-08-31T08:56:10.469Z,6156
2017-08-31T08:57:11.861Z,6020
2017-08-31T08:58:13.292Z,6216
2017-08-31T08:59:14.980Z,8600
2017-08-31T09:00:16.502Z,7004
2017-08-31T09:01:18.051Z,7316
2017-08-31T09:02:19.500Z,10556
2017-08-31T09:03:20.960Z,13204
2017-08-31T09:04:22.511Z,11080
2017-08-31T09:06:04.191Z,9868
2017-08-31T09:07:05.569Z,9556
2017-08-31T09:08:28.870Z,10468
2017-08-31T09:09:30.213Z,10456
2017-08-31T09:10:31.588Z,11024
2017-08-31T09:11:33.319Z,11256
2017-08-31T09:12:34.724Z,13500
2017-08-31T09:13:36.195Z,12812
2017-08-31T09:14:37.673Z,12964
2017-08-31T09:15:39.103Z,13748
2017-08-31T09:16:40.790Z,17024
2017-08-31T09:17:42.167Z,17504
2017-08-31T09:18:43.672Z,16864
2017-08-31T09:19:45.170Z,15328
2017-08-31T09:20:46.637Z,17664
2017-08-31T09:21:48.118Z,16288
2017-08-31T09:22:49.743Z,17408
2017-08-31T09:23:51.155Z,17184
2017-08-31T09:24:52.914Z,17344
2017-08-31T09:25:54.820Z,18720
2017-08-31T09:26:56.456Z,17760
2017-08-31T09:27:57.895Z,13848
2017-08-31T09:28:59.341Z,10252
2017-08-31T09:30:00.942Z,13532
2017-08-31T09:31:02.362Z,11176
2017-08-31T09:32:04.193Z,10028
2017-08-31T09:33:05.713Z,9236
2017-08-31T09:34:07.207Z,10336
2017-08-31T09:35:08.773Z,11208
2017-08-31T09:36:10.426Z,11568
2017-08-31T09:37:56.915Z,11300
2017-08-31T09:38:58.407Z,12744
2017-08-31T09:39:59.865Z,13980
2017-08-31T09:41:01.383Z,14372
2017-08-31T09:42:03.390Z,11232
2017-08-31T09:43:05.094Z,13024
2017-08-31T09:44:06.850Z,12172
2017-08-31T09:45:08.778Z,10344
2017-08-31T09:46:10.792Z,9652
2017-08-31T09:47:12.497Z,9144
2017-08-31T09:48:14.206Z,8512
2017-08-31T09:49:16.250Z,8056
2017-08-31T09:50:17.777Z,7536
2017-08-31T09:51:19.496Z,9436
2017-08-31T09:52:20.962Z,12360
2017-08-31T09:53:22.442Z,13708
2017-08-31T09:54:23.963Z,12448
2017-08-31T09:55:25.743Z,12684
2017-08-31T09:56:27.264Z,12492
2017-08-31T09:57:28.724Z,11200
2017-08-31T09:58:30.435Z,9464
2017-08-31T09:59:32.518Z,8180
2017-08-31T10:00:34.252Z,8800
2017-08-31T10:01:36.249Z,9744
2017-08-31T10:02:38.012Z,9560
2017-08-31T10:03:39.904Z,9208
2017-08-31T10:04:41.943Z,8228
2017-08-31T10:05:43.677Z,7624
2017-08-31T10:06:45.402Z,6904
2017-08-31T10:07:47.115Z,5848
2017-08-31T10:08:48.904Z,7840
2017-08-31T10:10:32.254Z,15428
